Time;durP1;ratioP1;P1;durP2;ratioP2;P2;SDS_P1;SDS_P2;PMS_P1;PMS_P2;Temp;Humidity;BMP_temperature;BMP_pressure;BME280_temperature;BME280_humidity;BME280_pressure;Samples;Min_cycle;Max_cycle;Signal;HPM_P1;HPM_P2
2024/02/10 00:00:05;;;;;;;3.60;1.90;;;;;;;13.21;77.74;100173.99;106832;1285;58229;-59
2024/02/10 00:02:31;;;;;;;5.80;2.20;;;;;;;13.21;77.41;100175.89;106869;1285;58272;-59
2024/02/10 00:04:57;;;;;;;3.00;2.00;;;;;;;13.20;77.22;100175.67;106824;1285;58167;-59
2024/02/10 00:07:22;;;;;;;3.60;2.00;;;;;;;13.19;77.20;100170.70;106854;1285;58283;-59
2024/02/10 00:09:48;;;;;;;5.20;2.10;;;;;;;13.19;77.16;100165.57;106549;1287;58341;-59
2024/02/10 00:12:13;;;;;;;4.40;2.10;;;;;;;13.18;77.38;100164.98;106836;1285;60003;-59
2024/02/10 00:14:41;;;;;;;4.00;2.00;;;;;;;13.19;77.23;100168.34;106815;1285;58350;-59
2024/02/10 00:17:09;;;;;;;4.00;2.10;;;;;;;13.18;77.27;100167.75;106865;1285;74365;-59
2024/02/10 00:19:37;;;;;;;4.20;2.10;;;;;;;13.18;77.25;100165.42;106831;1286;73705;-59
2024/02/10 00:22:06;;;;;;;3.70;2.10;;;;;;;13.18;77.09;100162.34;106856;1285;62630;-59
2024/02/10 00:24:33;;;;;;;4.00;2.00;;;;;;;13.18;77.09;100160.55;106850;1285;61074;-59
2024/02/10 00:27:01;;;;;;;3.30;1.90;;;;;;;13.17;77.08;100162.22;106540;1286;58266;-59
2024/02/10 00:29:28;;;;;;;3.60;2.10;;;;;;;13.17;76.83;100158.91;106877;1285;73369;-59
2024/02/10 00:31:53;;;;;;;3.10;1.90;;;;;;;13.17;76.58;100154.65;106832;1285;58264;-59
2024/02/10 00:34:22;;;;;;;3.30;1.80;;;;;;;13.17;76.49;100156.55;106797;1285;58258;-59
2024/02/10 00:36:48;;;;;;;3.30;2.00;;;;;;;13.16;76.97;100159.69;106854;1285;59992;-59
2024/02/10 00:39:13;;;;;;;4.00;1.90;;;;;;;13.16;76.81;100156.66;106861;1285;58281;-59
2024/02/10 00:41:39;;;;;;;3.40;2.20;;;;;;;13.16;76.95;100158.89;106744;1285;58363;-59
2024/02/10 00:44:04;;;;;;;3.70;2.10;;;;;;;13.16;76.88;100153.70;106860;1285;58211;-59
2024/02/10 00:46:31;;;;;;;2.90;2.00;;;;;;;13.15;76.77;100145.86;106531;1286;58326;-59
2024/02/10 00:48:57;;;;;;;3.30;2.10;;;;;;;13.15;76.58;100144.45;106826;1285;73783;-59
2024/02/10 00:51:22;;;;;;;3.00;1.80;;;;;;;13.14;76.49;100145.65;106587;1286;58454;-59
2024/02/10 00:53:48;;;;;;;3.10;1.90;;;;;;;13.15;76.41;100146.84;106722;1286;58220;-59
2024/02/10 00:56:13;;;;;;;2.90;1.60;;;;;;;13.15;76.68;100152.09;106848;1285;58493;-59
2024/02/10 00:58:44;;;;;;;2.50;1.70;;;;;;;13.15;76.37;100148.08;106908;1285;58311;-59
2024/02/10 01:01:20;;;;;;;3.40;1.90;;;;;;;13.14;76.43;100152.68;106833;1285;74157;-59
2024/02/10 01:03:46;;;;;;;3.20;1.80;;;;;;;13.14;76.17;100157.92;106801;1285;72547;-59
2024/02/10 01:06:19;;;;;;;4.50;1.90;;;;;;;13.14;76.12;100164.05;106798;1285;58998;-59
2024/02/10 01:08:48;;;;;;;3.50;1.90;;;;;;;13.13;76.44;100162.65;106854;1285;59738;-59
2024/02/10 01:11:17;;;;;;;3.40;1.70;;;;;;;13.13;76.33;100163.10;106844;1285;73630;-59
2024/02/10 01:13:45;;;;;;;2.90;1.70;;;;;;;13.13;76.12;100157.73;106851;1285;73508;-59
2024/02/10 01:16:14;;;;;;;3.60;2.20;;;;;;;13.13;76.21;100156.60;106819;1285;73525;-60
2024/02/10 01:18:40;;;;;;;2.80;1.60;;;;;;;13.12;76.26;100152.23;106821;1285;61831;-59
2024/02/10 01:21:09;;;;;;;4.80;1.80;;;;;;;13.12;76.08;100152.71;106842;1285;58297;-59
2024/02/10 01:23:39;;;;;;;3.10;1.80;;;;;;;13.12;75.85;100161.80;106827;1285;74723;-59
2024/02/10 01:26:06;;;;;;;2.20;1.40;;;;;;;13.12;75.73;100168.14;106817;1285;73913;-59
2024/02/10 01:28:34;;;;;;;3.20;1.80;;;;;;;13.12;75.65;100169.75;106789;1285;74078;-59
2024/02/10 01:31:00;;;;;;;3.30;1.70;;;;;;;13.11;75.79;100173.17;106812;1285;62909;-59
2024/02/10 01:33:28;;;;;;;2.70;1.70;;;;;;;13.10;75.76;100167.88;106835;1285;58670;-59
2024/02/10 01:35:54;;;;;;;1.80;1.30;;;;;;;13.11;75.96;100169.27;106869;1285;75126;-58
2024/02/10 01:38:20;;;;;;;3.20;1.90;;;;;;;13.11;75.88;100171.44;106824;1285;58286;-59
2024/02/10 01:40:46;;;;;;;2.80;1.70;;;;;;;13.11;75.95;100174.48;106818;1285;58260;-58
2024/02/10 01:43:11;;;;;;;2.50;1.40;;;;;;;13.10;75.97;100171.66;106405;1286;58911;-59
2024/02/10 01:45:38;;;;;;;2.70;1.40;;;;;;;13.10;75.80;100174.44;106780;1286;59118;-59
2024/02/10 01:48:08;;;;;;;3.30;1.50;;;;;;;13.10;75.74;100176.44;106852;1285;58266;-58
2024/02/10 01:50:35;;;;;;;2.70;1.60;;;;;;;13.10;75.86;100169.24;106803;1285;74425;-59
2024/02/10 01:53:02;;;;;;;2.40;1.50;;;;;;;13.10;75.88;100167.84;106288;1292;73501;-59
2024/02/10 01:55:28;;;;;;;2.80;1.50;;;;;;;13.10;75.38;100166.31;106835;1285;62636;-58
2024/02/10 01:57:59;;;;;;;2.60;1.40;;;;;;;13.10;75.36;100172.20;106851;1285;58178;-59
2024/02/10 02:00:25;;;;;;;2.50;1.50;;;;;;;13.10;75.32;100168.00;106719;1286;73996;-59
2024/02/10 02:02:51;;;;;;;2.80;1.40;;;;;;;13.10;75.05;100169.63;106798;1285;74804;-59
2024/02/10 02:05:18;;;;;;;1.80;1.20;;;;;;;13.09;75.21;100169.41;106852;1285;58243;-59
2024/02/10 02:07:48;;;;;;;1.70;1.50;;;;;;;13.08;75.39;100171.85;106797;1285;58246;-58
2024/02/10 02:10:14;;;;;;;1.50;1.10;;;;;;;13.08;74.97;100173.38;106823;1285;59959;-59
2024/02/10 02:12:47;;;;;;;2.20;1.40;;;;;;;13.07;74.93;100175.33;106809;1285;58519;-59
2024/02/10 02:15:14;;;;;;;1.70;1.20;;;;;;;13.07;75.01;100184.52;106850;1285;74565;-59
2024/02/10 02:17:39;;;;;;;1.90;1.30;;;;;;;13.07;74.85;100176.64;106802;1285;58273;-59
2024/02/10 02:20:06;;;;;;;2.50;1.50;;;;;;;13.07;74.84;100175.06;106863;1285;58312;-59
2024/02/10 02:22:32;;;;;;;2.20;1.40;;;;;;;13.07;74.92;100177.83;106499;1286;58314;-59
2024/02/10 02:24:57;;;;;;;2.00;1.30;;;;;;;13.06;75.00;100176.42;106824;1285;58256;-59
2024/02/10 02:27:22;;;;;;;3.20;1.50;;;;;;;13.06;74.75;100175.11;106797;1285;58330;-59
2024/02/10 02:29:49;;;;;;;2.80;1.50;;;;;;;13.05;74.80;100181.13;106887;1285;58150;-59
2024/02/10 02:32:15;;;;;;;2.70;1.80;;;;;;;13.05;74.77;100180.70;106799;1285;61235;-59
2024/02/10 02:34:41;;;;;;;2.10;1.50;;;;;;;13.05;74.79;100177.17;106858;1285;58263;-59
2024/02/10 02:37:06;;;;;;;2.90;1.70;;;;;;;13.05;74.78;100177.78;106845;1285;58234;-59
2024/02/10 02:39:33;;;;;;;4.10;1.60;;;;;;;13.05;74.69;100174.32;106814;1285;58299;-59
2024/02/10 02:42:04;;;;;;;2.60;1.50;;;;;;;13.05;74.77;100177.08;106824;1285;58274;-59
2024/02/10 02:44:30;;;;;;;2.20;1.60;;;;;;;13.04;74.73;100182.01;106816;1285;60140;-59
2024/02/10 02:46:56;;;;;;;1.70;1.30;;;;;;;13.04;74.84;100182.23;106540;1285;58438;-59
2024/02/10 02:49:23;;;;;;;2.40;1.40;;;;;;;13.04;74.42;100181.53;106885;1285;58348;-59
2024/02/10 02:51:52;;;;;;;1.80;1.30;;;;;;;13.04;74.59;100182.98;106799;1285;58276;-59
2024/02/10 02:54:20;;;;;;;2.90;1.30;;;;;;;13.04;74.44;100183.43;106811;1285;62674;-59
2024/02/10 02:56:50;;;;;;;2.00;1.30;;;;;;;13.03;74.33;100184.04;106853;1285;60248;-59
2024/02/10 02:59:16;;;;;;;2.40;1.40;;;;;;;13.03;74.35;100183.33;106806;1285;73648;-59
2024/02/10 03:01:41;;;;;;;2.60;1.20;;;;;;;13.03;74.36;100183.74;106519;1286;58391;-59
2024/02/10 03:04:07;;;;;;;1.90;1.00;;;;;;;13.02;74.34;100187.11;106848;1285;58589;-59
2024/02/10 03:06:33;;;;;;;2.10;1.00;;;;;;;13.02;74.25;100184.30;106860;1285;58189;-59
2024/02/10 03:08:58;;;;;;;1.30;1.20;;;;;;;13.02;74.33;100184.14;107019;1284;58254;-59
2024/02/10 03:11:26;;;;;;;2.40;1.30;;;;;;;13.02;74.31;100185.70;107018;1284;73616;-59
2024/02/10 03:13:52;;;;;;;2.50;1.20;;;;;;;13.02;74.28;100185.06;106627;1285;72655;-59
2024/02/10 03:16:19;;;;;;;1.60;1.10;;;;;;;13.01;74.10;100183.79;106948;1284;58265;-59
2024/02/10 03:18:46;;;;;;;1.50;1.20;;;;;;;13.00;74.30;100177.95;106975;1284;61170;-59
2024/02/10 03:21:17;;;;;;;2.80;1.30;;;;;;;13.00;74.40;100180.60;106970;1284;74666;-59
2024/02/10 03:23:44;;;;;;;2.10;1.00;;;;;;;13.00;74.14;100182.38;106984;1284;74303;-59
2024/02/10 03:26:11;;;;;;;2.20;1.20;;;;;;;13.00;74.05;100184.55;106586;1284;71873;-59
2024/02/10 03:28:37;;;;;;;1.50;1.00;;;;;;;12.99;74.17;100177.14;106938;1285;61893;-59
2024/02/10 03:31:03;;;;;;;1.50;1.10;;;;;;;12.99;74.01;100171.89;107001;1284;58255;-59
2024/02/10 03:33:32;;;;;;;1.90;1.00;;;;;;;12.98;73.91;100172.94;107007;1284;58228;-59
2024/02/10 03:36:01;;;;;;;1.80;1.20;;;;;;;12.98;74.05;100170.02;106653;1286;74747;-59
2024/02/10 03:38:27;;;;;;;1.10;0.90;;;;;;;12.98;73.90;100169.53;106929;1284;74090;-59
2024/02/10 03:40:53;;;;;;;1.70;1.10;;;;;;;12.98;73.93;100167.81;106956;1285;58199;-59
2024/02/10 03:43:26;;;;;;;2.00;1.10;;;;;;;12.98;73.83;100166.18;107000;1284;58362;-59
2024/02/10 03:45:52;;;;;;;1.60;1.10;;;;;;;12.97;73.97;100166.30;106990;1284;73779;-59
2024/02/10 03:48:17;;;;;;;2.60;1.00;;;;;;;12.96;73.80;100163.54;106979;1284;58393;-59
2024/02/10 03:50:43;;;;;;;1.30;1.00;;;;;;;12.96;74.19;100170.73;106982;1285;58772;-59
2024/02/10 03:53:08;;;;;;;1.70;1.30;;;;;;;12.96;73.98;100170.57;106487;1286;58278;-59
2024/02/10 03:55:34;;;;;;;1.60;1.10;;;;;;;12.96;73.91;100168.66;106981;1285;58308;-59
2024/02/10 03:57:59;;;;;;;1.60;1.00;;;;;;;12.96;74.00;100171.81;107061;1285;58286;-58
2024/02/10 04:00:26;;;;;;;1.90;1.10;;;;;;;12.95;73.97;100177.72;106961;1284;58347;-58
2024/02/10 04:02:55;;;;;;;1.60;1.00;;;;;;;12.94;73.73;100172.75;106910;1284;58230;-59
2024/02/10 04:05:21;;;;;;;1.50;1.10;;;;;;;12.94;73.76;100172.91;106977;1285;60045;-58
2024/02/10 04:07:51;;;;;;;1.70;1.00;;;;;;;12.94;73.65;100167.94;106635;1286;58728;-58
2024/02/10 04:10:17;;;;;;;2.00;1.20;;;;;;;12.94;73.69;100164.15;106961;1284;73524;-58
2024/02/10 04:12:43;;;;;;;2.30;1.10;;;;;;;12.93;73.73;100165.98;106969;1284;58153;-58
2024/02/10 04:15:11;;;;;;;1.20;1.00;;;;;;;12.93;73.38;100171.39;106927;1284;58307;-59
2024/02/10 04:17:38;;;;;;;1.80;1.10;;;;;;;12.93;73.46;100172.60;106956;1284;61216;-58
2024/02/10 04:20:07;;;;;;;1.30;0.90;;;;;;;12.92;73.61;100166.50;106924;1285;73505;-58
2024/02/10 04:22:33;;;;;;;1.40;1.00;;;;;;;12.91;73.37;100166.94;106675;1284;74076;-59
2024/02/10 04:24:58;;;;;;;2.80;1.10;;;;;;;12.91;73.62;100169.11;106930;1285;58280;-59
2024/02/10 04:27:24;;;;;;;2.00;1.20;;;;;;;12.90;73.35;100163.54;106973;1284;58202;-58
2024/02/10 04:29:49;;;;;;;1.40;1.00;;;;;;;12.91;73.68;100166.73;106991;1284;58374;-58
2024/02/10 04:32:15;;;;;;;2.30;0.90;;;;;;;12.90;73.59;100168.51;106964;1285;58545;-61
2024/02/10 04:34:43;;;;;;;1.70;1.30;;;;;;;12.91;73.62;100173.38;107017;1284;58289;-58
2024/02/10 04:37:10;;;;;;;1.80;0.90;;;;;;;12.90;73.58;100178.36;106923;1284;62214;-59
2024/02/10 04:39:37;;;;;;;1.80;1.20;;;;;;;12.90;73.40;100176.90;107002;1285;60179;-59
2024/02/10 04:42:05;;;;;;;3.20;1.50;;;;;;;12.90;73.40;100183.23;106969;1284;73152;-59
2024/02/10 04:44:31;;;;;;;1.70;1.20;;;;;;;12.89;73.48;100183.57;106925;1284;74141;-59
2024/02/10 04:46:57;;;;;;;2.10;1.30;;;;;;;12.89;73.55;100186.42;106980;1284;58981;-59
2024/02/10 04:49:25;;;;;;;1.90;1.10;;;;;;;12.89;73.37;100190.28;106966;1284;58166;-59
2024/02/10 04:51:51;;;;;;;1.20;1.00;;;;;;;12.89;73.51;100193.52;106968;1284;61590;-59
2024/02/10 04:54:17;;;;;;;1.90;0.90;;;;;;;12.89;73.40;100201.54;106956;1285;58269;-59
2024/02/10 04:56:42;;;;;;;2.60;1.30;;;;;;;12.88;73.48;100196.61;106960;1285;58520;-59
2024/02/10 04:59:07;;;;;;;2.20;1.20;;;;;;;12.88;73.22;100195.52;106902;1284;58247;-59
2024/02/10 05:01:33;;;;;;;2.30;1.20;;;;;;;12.88;73.41;100189.20;107064;1284;58198;-59
2024/02/10 05:03:58;;;;;;;1.70;1.10;;;;;;;12.88;73.29;100191.15;106651;1286;58358;-59
2024/02/10 05:06:28;;;;;;;1.60;1.10;;;;;;;12.88;73.08;100189.20;106950;1284;58264;-59
2024/02/10 05:08:54;;;;;;;2.20;1.10;;;;;;;12.88;73.24;100183.54;106914;1285;73258;-59
2024/02/10 05:11:21;;;;;;;1.60;1.10;;;;;;;12.88;73.27;100182.40;106949;1285;58499;-59
2024/02/10 05:13:47;;;;;;;1.40;1.00;;;;;;;12.88;73.42;100180.45;106945;1285;58194;-59
2024/02/10 05:16:15;;;;;;;1.40;1.00;;;;;;;12.87;73.34;100184.05;106964;1284;58292;-59
2024/02/10 05:18:40;;;;;;;1.60;1.00;;;;;;;12.87;73.11;100181.03;106617;1285;73541;-59
2024/02/10 05:21:06;;;;;;;2.20;1.20;;;;;;;12.87;73.09;100184.66;106946;1285;58207;-59
2024/02/10 05:23:33;;;;;;;1.20;1.00;;;;;;;12.87;72.92;100186.88;106973;1284;58294;-59
2024/02/10 05:26:00;;;;;;;1.80;1.10;;;;;;;12.86;72.85;100186.90;106918;1284;58201;-59
2024/02/10 05:28:26;;;;;;;3.30;1.60;;;;;;;12.86;73.05;100183.61;106923;1284;58235;-59
2024/02/10 05:30:57;;;;;;;1.70;1.00;;;;;;;12.86;73.29;100188.09;106645;1286;58294;-59
2024/02/10 05:33:26;;;;;;;1.70;1.10;;;;;;;12.86;72.86;100190.79;106934;1285;73781;-59
2024/02/10 05:35:52;;;;;;;1.50;1.00;;;;;;;12.86;72.96;100194.31;106926;1284;62916;-59
2024/02/10 05:38:18;;;;;;;1.50;1.10;;;;;;;12.86;72.97;100195.23;106966;1284;59153;-59
2024/02/10 05:40:43;;;;;;;2.10;1.20;;;;;;;12.86;72.72;100196.80;106654;1285;58567;-60
2024/02/10 05:43:10;;;;;;;2.60;1.20;;;;;;;12.85;72.72;100193.28;106987;1285;58444;-59
2024/02/10 05:45:38;;;;;;;1.40;0.90;;;;;;;12.85;72.75;100200.33;106952;1284;58238;-59
2024/02/10 05:48:04;;;;;;;1.30;0.90;;;;;;;12.85;72.92;100201.80;106942;1284;58552;-59
2024/02/10 05:50:29;;;;;;;2.50;1.30;;;;;;;12.85;72.73;100207.62;107016;1284;58232;-59
2024/02/10 05:52:58;;;;;;;1.50;1.00;;;;;;;12.85;72.91;100207.61;106973;1285;58237;-59
2024/02/10 05:55:25;;;;;;;3.20;1.40;;;;;;;12.85;72.53;100204.42;106912;1285;58193;-59
2024/02/10 05:58:06;;;;;;;3.10;1.10;;;;;;;12.85;72.73;100203.35;106638;1284;73526;-59
2024/02/10 06:00:40;;;;;;;1.80;1.30;;;;;;;12.84;72.61;100203.30;106963;1285;61248;-59
2024/02/10 06:03:05;;;;;;;2.90;1.40;;;;;;;12.84;72.56;100200.76;106957;1284;60250;-59
2024/02/10 06:05:31;;;;;;;2.50;1.40;;;;;;;12.83;72.38;100198.92;106990;1284;58215;-59
2024/02/10 06:07:57;;;;;;;2.30;1.20;;;;;;;12.83;72.57;100199.86;106670;1286;58374;-59
2024/02/10 06:10:22;;;;;;;2.10;1.30;;;;;;;12.83;72.42;100201.20;106982;1284;58353;-59
2024/02/10 06:12:49;;;;;;;2.00;1.20;;;;;;;12.82;72.44;100206.02;106563;1285;58501;-59
2024/02/10 06:15:17;;;;;;;2.70;1.30;;;;;;;12.82;72.71;100213.11;106982;1285;73885;-59
2024/02/10 06:17:45;;;;;;;1.90;1.30;;;;;;;12.82;72.65;100213.91;106984;1284;73281;-59
2024/02/10 06:20:14;;;;;;;2.10;1.30;;;;;;;12.82;72.58;100215.59;106980;1284;73506;-59
2024/02/10 06:22:41;;;;;;;2.40;1.30;;;;;;;12.82;72.55;100218.20;106920;1285;61741;-59
2024/02/10 06:25:11;;;;;;;3.10;1.60;;;;;;;12.82;72.57;100216.73;106973;1285;59111;-59
2024/02/10 06:27:41;;;;;;;2.40;1.10;;;;;;;12.81;72.57;100219.50;107017;1284;74705;-59
2024/02/10 06:30:08;;;;;;;2.40;1.20;;;;;;;12.81;72.68;100223.56;106666;1284;382810;-59
2024/02/10 06:32:36;;;;;;;2.00;1.30;;;;;;;12.81;72.69;100228.05;106991;1284;73583;-59
2024/02/10 06:35:02;;;;;;;1.60;1.20;;;;;;;12.81;72.71;100225.50;106840;1285;62159;-60
2024/02/10 06:37:29;;;;;;;2.60;1.40;;;;;;;12.81;72.67;100224.80;106774;1284;58410;-59
2024/02/10 06:39:55;;;;;;;1.90;1.30;;;;;;;12.81;72.76;100222.54;106968;1285;74860;-59
2024/02/10 06:42:20;;;;;;;1.50;1.10;;;;;;;12.81;72.79;100224.90;106654;1286;58735;-59
2024/02/10 06:44:46;;;;;;;1.20;1.00;;;;;;;12.81;72.91;100226.20;106995;1284;58303;-59
2024/02/10 06:47:11;;;;;;;1.50;1.20;;;;;;;12.82;73.01;100226.14;106978;1284;58215;-60
2024/02/10 06:49:37;;;;;;;1.90;1.20;;;;;;;12.81;72.70;100223.98;106973;1285;58213;-60
2024/02/10 06:52:02;;;;;;;3.20;1.60;;;;;;;12.81;72.76;100225.66;106974;1284;58259;-59
2024/02/10 06:54:28;;;;;;;2.10;1.20;;;;;;;12.82;72.90;100229.33;106862;1285;58220;-59
2024/02/10 06:56:57;;;;;;;1.90;1.10;;;;;;;12.82;72.89;100225.86;106944;1285;58163;-59
2024/02/10 06:59:23;;;;;;;2.20;1.30;;;;;;;12.82;72.50;100222.58;106966;1284;58399;-59
2024/02/10 07:01:52;;;;;;;1.90;1.30;;;;;;;12.82;72.66;100225.60;107015;1285;58231;-59
2024/02/10 07:04:18;;;;;;;2.00;1.30;;;;;;;12.83;73.20;100226.56;106819;1285;74806;-60
2024/02/10 07:06:43;;;;;;;2.90;1.20;;;;;;;12.83;73.44;100224.36;106948;1285;58317;-59
2024/02/10 07:09:09;;;;;;;1.90;1.20;;;;;;;12.83;73.63;100223.00;106940;1284;58301;-59
2024/02/10 07:11:34;;;;;;;2.80;1.30;;;;;;;12.83;73.92;100226.41;107033;1284;58272;-59
2024/02/10 07:14:00;;;;;;;4.40;1.30;;;;;;;12.83;74.18;100233.81;107046;1285;58484;-59
2024/02/10 07:16:25;;;;;;;2.80;1.60;;;;;;;12.83;74.32;100237.71;106934;1284;72610;-59
2024/02/10 07:18:51;;;;;;;3.30;1.60;;;;;;;12.84;74.33;100242.84;106654;1286;58709;-59
2024/02/10 07:21:16;;;;;;;3.40;1.70;;;;;;;12.84;74.18;100246.41;106951;1285;58262;-59
2024/02/10 07:23:45;;;;;;;2.10;1.50;;;;;;;12.84;74.16;100251.66;106991;1284;58131;-59
2024/02/10 07:26:10;;;;;;;4.30;1.20;;;;;;;12.84;74.21;100253.54;107013;1285;58312;-59
2024/02/10 07:28:36;;;;;;;3.00;1.60;;;;;;;12.84;74.33;100250.61;106844;1285;58349;-59
2024/02/10 07:31:02;;;;;;;2.60;1.40;;;;;;;12.85;74.32;100249.48;106989;1284;58283;-59
2024/02/10 07:33:31;;;;;;;4.00;1.60;;;;;;;12.85;74.23;100253.59;107000;1284;58656;-59
2024/02/10 07:35:58;;;;;;;2.90;1.60;;;;;;;12.84;74.23;100252.63;107025;1285;58319;-59
2024/02/10 07:38:24;;;;;;;3.90;1.80;;;;;;;12.85;74.56;100252.73;106985;1285;74544;-59
2024/02/10 07:40:49;;;;;;;3.30;1.40;;;;;;;12.85;74.42;100252.13;106888;1285;58301;-59
2024/02/10 07:43:16;;;;;;;2.90;1.50;;;;;;;12.85;74.48;100254.63;107013;1284;58170;-59
2024/02/10 07:45:45;;;;;;;2.70;1.40;;;;;;;12.86;74.44;100258.84;106629;1285;58361;-60
2024/02/10 07:48:11;;;;;;;3.40;2.00;;;;;;;12.86;74.46;100258.69;106994;1284;74635;-59
2024/02/10 07:50:41;;;;;;;3.50;1.90;;;;;;;12.85;74.38;100258.95;107018;1284;58228;-59
2024/02/10 07:53:10;;;;;;;5.00;2.50;;;;;;;12.85;74.14;100261.77;106969;1284;72425;-59
2024/02/10 07:55:37;;;;;;;4.50;2.00;;;;;;;12.85;74.23;100264.20;106846;1285;62405;-58
2024/02/10 07:58:04;;;;;;;6.00;2.70;;;;;;;12.85;74.68;100259.83;107011;1284;58222;-58
2024/02/10 08:00:32;;;;;;;4.50;2.00;;;;;;;12.86;75.04;100260.40;106963;1285;73430;-59
2024/02/10 08:03:03;;;;;;;6.00;1.90;;;;;;;12.87;75.29;100264.61;106996;1284;73496;-58
2024/02/10 08:05:30;;;;;;;7.90;1.70;;;;;;;12.87;75.56;100260.77;106927;1284;73657;-58
2024/02/10 08:07:57;;;;;;;3.20;1.70;;;;;;;12.88;76.54;100261.35;106968;1285;62714;-58
2024/02/10 08:10:22;;;;;;;5.60;1.80;;;;;;;12.88;76.93;100255.46;106989;1284;61038;-57
2024/02/10 08:12:50;;;;;;;6.50;2.00;;;;;;;12.90;78.06;100254.41;106864;1286;58301;-59
2024/02/10 08:15:15;;;;;;;6.00;1.90;;;;;;;12.91;77.97;100257.92;106883;1285;58140;-60
2024/02/10 08:21:30;;;;;;;15.40;1.70;;;;;;;12.96;79.39;100270.11;102635;1295;599425;-60
2024/02/10 08:23:57;;;;;;;6.20;1.70;;;;;;;12.94;79.91;100276.77;102621;1293;62353;-60
2024/02/10 08:26:27;;;;;;;4.90;1.70;;;;;;;12.92;79.73;100279.98;102594;1292;60656;-60
2024/02/10 08:28:57;;;;;;;7.60;1.90;;;;;;;12.89;79.59;100275.46;102733;1298;73591;-57
2024/02/10 08:31:24;;;;;;;4.60;1.70;;;;;;;12.86;79.63;100277.38;102786;1295;74892;-59
2024/02/10 08:33:50;;;;;;;5.80;1.80;;;;;;;12.82;80.17;100272.98;102299;1295;410900;-58
2024/02/10 08:36:16;;;;;;;4.20;2.00;;;;;;;12.80;80.10;100272.84;102765;1292;60440;-59
2024/02/10 08:38:46;;;;;;;8.80;2.00;;;;;;;12.76;79.93;100267.67;102661;1292;60476;-60
2024/02/10 08:41:13;;;;;;;5.80;1.90;;;;;;;12.73;80.18;100271.27;102826;1291;74056;-58
2024/02/10 08:43:47;;;;;;;8.10;2.20;;;;;;;12.71;80.64;100275.77;103102;1287;74939;-60
2024/02/10 08:46:17;;;;;;;5.30;1.90;;;;;;;12.69;80.31;100271.67;103001;1291;74078;-60
2024/02/10 08:48:43;;;;;;;5.20;1.80;;;;;;;12.67;81.12;100268.13;102754;1289;63182;-58
2024/02/10 08:51:13;;;;;;;3.30;1.70;;;;;;;12.64;81.08;100267.11;103025;1291;60369;-58
2024/02/10 08:53:40;;;;;;;6.90;1.80;;;;;;;12.62;80.87;100268.43;102967;1289;74212;-58
2024/02/10 08:56:10;;;;;;;4.40;2.10;;;;;;;12.61;80.65;100280.77;102936;1289;74723;-57
2024/02/10 08:58:39;;;;;;;5.60;1.90;;;;;;;12.59;80.45;100283.64;102967;1291;74148;-58
2024/02/10 09:01:06;;;;;;;6.20;2.00;;;;;;;12.58;80.66;100279.59;103076;1289;60529;-59
2024/02/10 09:03:33;;;;;;;4.90;1.90;;;;;;;12.58;80.75;100282.88;102880;1288;61678;-59
2024/02/10 09:05:58;;;;;;;7.90;2.20;;;;;;;12.56;80.41;100288.27;102878;1289;72430;-59
2024/02/10 09:08:24;;;;;;;5.80;2.00;;;;;;;12.55;80.52;100287.39;103068;1289;60426;-60
2024/02/10 09:10:49;;;;;;;4.50;2.20;;;;;;;12.54;80.37;100277.89;102989;1289;60449;-61
2024/02/10 09:13:15;;;;;;;4.70;2.20;;;;;;;12.54;80.39;100273.46;103101;1289;60411;-60
2024/02/10 09:15:40;;;;;;;4.00;2.20;;;;;;;12.52;80.53;100273.67;102957;1289;60433;-59
2024/02/10 09:18:06;;;;;;;5.80;2.40;;;;;;;12.51;80.11;100265.42;102956;1289;60388;-60
2024/02/10 09:20:32;;;;;;;4.50;2.00;;;;;;;12.50;80.60;100259.05;103028;1289;60504;-60
2024/02/10 09:23:03;;;;;;;5.40;2.70;;;;;;;12.49;80.42;100259.91;102843;1289;60456;-61
2024/02/10 09:25:28;;;;;;;7.60;2.60;;;;;;;12.47;79.44;100252.89;102817;1287;60560;-60
2024/02/10 09:27:56;;;;;;;7.90;2.70;;;;;;;12.45;79.68;100248.59;102717;1295;60441;-60
2024/02/10 09:30:25;;;;;;;6.90;2.50;;;;;;;12.44;80.06;100249.73;103162;1289;74760;-60
2024/02/10 09:32:51;;;;;;;6.50;2.30;;;;;;;12.43;80.08;100244.33;103082;1289;74324;-60
2024/02/10 09:35:20;;;;;;;6.80;3.00;;;;;;;12.42;80.49;100246.29;102795;1291;60428;-59
2024/02/10 09:37:46;;;;;;;5.70;2.20;;;;;;;12.42;80.73;100237.55;102977;1289;60885;-60
2024/02/10 09:40:18;;;;;;;6.10;2.60;;;;;;;12.42;80.90;100235.43;103104;1291;74804;-59
2024/02/10 09:42:49;;;;;;;4.60;2.30;;;;;;;12.41;81.49;100234.61;103080;1289;74749;-59
2024/02/10 09:45:16;;;;;;;8.10;2.70;;;;;;;12.41;81.61;100243.00;102950;1288;74934;-60
2024/02/10 09:47:45;;;;;;;6.00;2.70;;;;;;;12.40;81.72;100247.43;102836;1286;61119;-60
2024/02/10 09:50:14;;;;;;;5.80;2.70;;;;;;;12.40;82.38;100250.46;102716;1289;60796;-60
2024/02/10 09:52:47;;;;;;;10.00;2.80;;;;;;;12.40;82.18;100256.56;102897;1288;75912;-60
2024/02/10 09:55:16;;;;;;;11.70;3.50;;;;;;;12.40;82.42;100255.60;102793;1289;74860;-60
2024/02/10 09:57:47;;;;;;;7.60;3.30;;;;;;;12.40;82.11;100253.66;102893;1291;73669;-59
2024/02/10 10:00:16;;;;;;;7.70;3.20;;;;;;;12.39;82.65;100255.49;102980;1289;63153;-60
2024/02/10 10:02:49;;;;;;;9.70;3.00;;;;;;;12.39;82.90;100259.44;102933;1289;60424;-61
2024/02/10 10:05:18;;;;;;;7.20;3.40;;;;;;;12.39;82.51;100258.59;103505;1290;73083;-60
2024/02/10 10:07:51;;;;;;;5.30;2.40;;;;;;;12.40;82.25;100268.36;103028;1291;75021;-60
2024/02/10 10:10:21;;;;;;;10.70;3.20;;;;;;;12.39;81.80;100277.17;102829;1289;72236;-62
